sensor_id;sensor_type;location;lat;lon;timestamp;P1;durP1;ratioP1;P2;durP2;ratioP2
75993;SDS011;64680;53.800;9.988;2023-05-07T00:01:55;10.70;;;6.78;;
75993;SDS011;64680;53.800;9.988;2023-05-07T00:04:21;9.80;;;6.22;;
75993;SDS011;64680;53.800;9.988;2023-05-07T00:06:47;11.05;;;6.72;;
75993;SDS011;64680;53.800;9.988;2023-05-07T00:09:13;11.77;;;6.70;;
75993;SDS011;64680;53.800;9.988;2023-05-07T00:11:39;12.65;;;7.45;;
75993;SDS011;64680;53.800;9.988;2023-05-07T00:14:05;11.75;;;7.45;;
75993;SDS011;64680;53.800;9.988;2023-05-07T00:16:31;10.93;;;7.22;;
75993;SDS011;64680;53.800;9.988;2023-05-07T00:18:56;12.30;;;7.38;;
75993;SDS011;64680;53.800;9.988;2023-05-07T00:21:22;12.20;;;7.82;;
75993;SDS011;64680;53.800;9.988;2023-05-07T00:23:51;11.00;;;7.18;;
75993;SDS011;64680;53.800;9.988;2023-05-07T00:26:17;14.02;;;6.68;;
75993;SDS011;64680;53.800;9.988;2023-05-07T00:28:43;13.30;;;7.32;;
75993;SDS011;64680;53.800;9.988;2023-05-07T00:31:08;10.70;;;6.80;;
75993;SDS011;64680;53.800;9.988;2023-05-07T00:33:34;11.73;;;7.63;;
75993;SDS011;64680;53.800;9.988;2023-05-07T00:35:59;11.63;;;6.78;;
75993;SDS011;64680;53.800;9.988;2023-05-07T00:38:26;13.23;;;8.60;;
75993;SDS011;64680;53.800;9.988;2023-05-07T00:40:52;13.10;;;8.05;;
75993;SDS011;64680;53.800;9.988;2023-05-07T00:43:18;11.45;;;7.88;;
75993;SDS011;64680;53.800;9.988;2023-05-07T00:45:43;11.38;;;7.60;;
75993;SDS011;64680;53.800;9.988;2023-05-07T00:48:09;12.63;;;8.27;;
75993;SDS011;64680;53.800;9.988;2023-05-07T00:50:35;12.52;;;7.97;;
75993;SDS011;64680;53.800;9.988;2023-05-07T00:53:00;12.75;;;8.00;;
75993;SDS011;64680;53.800;9.988;2023-05-07T00:55:26;12.27;;;7.63;;
75993;SDS011;64680;53.800;9.988;2023-05-07T00:57:52;11.10;;;7.47;;
75993;SDS011;64680;53.800;9.988;2023-05-07T01:00:17;14.00;;;7.68;;
75993;SDS011;64680;53.800;9.988;2023-05-07T01:02:43;11.70;;;7.30;;
75993;SDS011;64680;53.800;9.988;2023-05-07T01:05:10;12.05;;;7.38;;
75993;SDS011;64680;53.800;9.988;2023-05-07T01:07:40;12.95;;;7.63;;
75993;SDS011;64680;53.800;9.988;2023-05-07T01:10:07;12.35;;;7.68;;
75993;SDS011;64680;53.800;9.988;2023-05-07T01:12:33;12.60;;;8.23;;
75993;SDS011;64680;53.800;9.988;2023-05-07T01:15:00;13.15;;;7.82;;
75993;SDS011;64680;53.800;9.988;2023-05-07T01:17:27;11.05;;;7.40;;
75993;SDS011;64680;53.800;9.988;2023-05-07T01:19:52;12.60;;;7.45;;
75993;SDS011;64680;53.800;9.988;2023-05-07T01:25:14;12.68;;;7.80;;
75993;SDS011;64680;53.800;9.988;2023-05-07T01:27:41;13.27;;;8.60;;
75993;SDS011;64680;53.800;9.988;2023-05-07T01:30:06;11.75;;;8.10;;
75993;SDS011;64680;53.800;9.988;2023-05-07T01:32:38;12.50;;;8.43;;
75993;SDS011;64680;53.800;9.988;2023-05-07T01:35:09;11.65;;;7.85;;
75993;SDS011;64680;53.800;9.988;2023-05-07T01:37:37;14.27;;;8.10;;
75993;SDS011;64680;53.800;9.988;2023-05-07T01:40:03;14.13;;;8.75;;
75993;SDS011;64680;53.800;9.988;2023-05-07T01:42:30;12.65;;;8.00;;
75993;SDS011;64680;53.800;9.988;2023-05-07T01:44:56;13.43;;;8.25;;
75993;SDS011;64680;53.800;9.988;2023-05-07T01:47:22;12.93;;;8.75;;
75993;SDS011;64680;53.800;9.988;2023-05-07T01:49:48;14.18;;;8.80;;
75993;SDS011;64680;53.800;9.988;2023-05-07T01:52:15;13.77;;;8.55;;
75993;SDS011;64680;53.800;9.988;2023-05-07T01:54:40;14.68;;;8.80;;
75993;SDS011;64680;53.800;9.988;2023-05-07T01:57:06;15.32;;;9.23;;
75993;SDS011;64680;53.800;9.988;2023-05-07T01:59:32;14.43;;;8.52;;
75993;SDS011;64680;53.800;9.988;2023-05-07T02:01:57;13.73;;;8.77;;
75993;SDS011;64680;53.800;9.988;2023-05-07T02:04:23;15.20;;;9.70;;
75993;SDS011;64680;53.800;9.988;2023-05-07T02:06:49;15.38;;;9.48;;
75993;SDS011;64680;53.800;9.988;2023-05-07T02:09:15;14.27;;;8.32;;
75993;SDS011;64680;53.800;9.988;2023-05-07T02:11:40;15.60;;;9.52;;
75993;SDS011;64680;53.800;9.988;2023-05-07T02:14:06;15.52;;;9.63;;
75993;SDS011;64680;53.800;9.988;2023-05-07T02:16:32;13.63;;;8.27;;
75993;SDS011;64680;53.800;9.988;2023-05-07T02:18:57;14.70;;;8.27;;
75993;SDS011;64680;53.800;9.988;2023-05-07T02:21:23;14.30;;;9.45;;
75993;SDS011;64680;53.800;9.988;2023-05-07T02:23:50;14.30;;;8.73;;
75993;SDS011;64680;53.800;9.988;2023-05-07T02:26:15;13.15;;;8.25;;
75993;SDS011;64680;53.800;9.988;2023-05-07T02:28:41;12.65;;;8.25;;
75993;SDS011;64680;53.800;9.988;2023-05-07T02:31:07;13.35;;;8.48;;
75993;SDS011;64680;53.800;9.988;2023-05-07T02:33:32;13.73;;;7.93;;
75993;SDS011;64680;53.800;9.988;2023-05-07T02:36:09;12.82;;;7.80;;
75993;SDS011;64680;53.800;9.988;2023-05-07T02:38:35;12.20;;;7.50;;
75993;SDS011;64680;53.800;9.988;2023-05-07T02:41:01;14.80;;;9.02;;
75993;SDS011;64680;53.800;9.988;2023-05-07T02:43:27;12.15;;;7.80;;
75993;SDS011;64680;53.800;9.988;2023-05-07T02:48:28;13.68;;;8.63;;
75993;SDS011;64680;53.800;9.988;2023-05-07T02:50:54;14.07;;;8.75;;
75993;SDS011;64680;53.800;9.988;2023-05-07T02:53:20;15.13;;;9.05;;
75993;SDS011;64680;53.800;9.988;2023-05-07T02:55:45;14.32;;;8.65;;
75993;SDS011;64680;53.800;9.988;2023-05-07T02:58:11;15.50;;;9.20;;
75993;SDS011;64680;53.800;9.988;2023-05-07T03:00:37;14.05;;;9.38;;
75993;SDS011;64680;53.800;9.988;2023-05-07T03:03:02;15.10;;;9.38;;
75993;SDS011;64680;53.800;9.988;2023-05-07T03:05:28;14.93;;;8.68;;
75993;SDS011;64680;53.800;9.988;2023-05-07T03:07:53;15.52;;;9.05;;
75993;SDS011;64680;53.800;9.988;2023-05-07T03:10:19;13.60;;;9.00;;
75993;SDS011;64680;53.800;9.988;2023-05-07T03:12:45;14.80;;;9.10;;
75993;SDS011;64680;53.800;9.988;2023-05-07T03:15:10;15.23;;;9.55;;
75993;SDS011;64680;53.800;9.988;2023-05-07T03:17:39;14.95;;;9.27;;
75993;SDS011;64680;53.800;9.988;2023-05-07T03:20:05;15.95;;;9.57;;
75993;SDS011;64680;53.800;9.988;2023-05-07T03:22:31;15.18;;;9.73;;
75993;SDS011;64680;53.800;9.988;2023-05-07T03:24:57;15.98;;;9.45;;
75993;SDS011;64680;53.800;9.988;2023-05-07T03:27:23;13.90;;;9.20;;
75993;SDS011;64680;53.800;9.988;2023-05-07T03:29:49;16.48;;;9.70;;
75993;SDS011;64680;53.800;9.988;2023-05-07T03:32:14;13.75;;;8.85;;
75993;SDS011;64680;53.800;9.988;2023-05-07T03:34:40;13.50;;;8.57;;
75993;SDS011;64680;53.800;9.988;2023-05-07T03:37:05;14.30;;;9.15;;
75993;SDS011;64680;53.800;9.988;2023-05-07T03:39:31;13.10;;;8.27;;
75993;SDS011;64680;53.800;9.988;2023-05-07T03:41:57;12.60;;;7.90;;
75993;SDS011;64680;53.800;9.988;2023-05-07T03:44:23;11.77;;;7.68;;
75993;SDS011;64680;53.800;9.988;2023-05-07T03:46:49;13.18;;;7.95;;
75993;SDS011;64680;53.800;9.988;2023-05-07T03:49:14;12.57;;;7.50;;
75993;SDS011;64680;53.800;9.988;2023-05-07T03:51:40;11.70;;;7.63;;
75993;SDS011;64680;53.800;9.988;2023-05-07T03:54:05;13.55;;;7.35;;
75993;SDS011;64680;53.800;9.988;2023-05-07T03:56:31;12.00;;;7.18;;
75993;SDS011;64680;53.800;9.988;2023-05-07T03:58:56;9.88;;;6.97;;
75993;SDS011;64680;53.800;9.988;2023-05-07T04:01:22;11.27;;;7.63;;
75993;SDS011;64680;53.800;9.988;2023-05-07T04:03:48;11.30;;;7.47;;
75993;SDS011;64680;53.800;9.988;2023-05-07T04:06:15;12.85;;;7.53;;
75993;SDS011;64680;53.800;9.988;2023-05-07T04:08:41;11.38;;;7.07;;
75993;SDS011;64680;53.800;9.988;2023-05-07T04:11:07;14.60;;;7.85;;
75993;SDS011;64680;53.800;9.988;2023-05-07T04:13:32;12.48;;;7.18;;
75993;SDS011;64680;53.800;9.988;2023-05-07T04:15:58;10.43;;;6.85;;
75993;SDS011;64680;53.800;9.988;2023-05-07T04:18:26;12.38;;;7.57;;
75993;SDS011;64680;53.800;9.988;2023-05-07T04:20:51;10.50;;;7.03;;
75993;SDS011;64680;53.800;9.988;2023-05-07T04:23:17;10.82;;;6.80;;
75993;SDS011;64680;53.800;9.988;2023-05-07T04:25:42;8.98;;;6.22;;
75993;SDS011;64680;53.800;9.988;2023-05-07T04:28:08;9.80;;;6.43;;
75993;SDS011;64680;53.800;9.988;2023-05-07T04:30:34;11.20;;;7.18;;
75993;SDS011;64680;53.800;9.988;2023-05-07T04:32:59;11.45;;;7.25;;
75993;SDS011;64680;53.800;9.988;2023-05-07T04:35:25;9.93;;;6.55;;
75993;SDS011;64680;53.800;9.988;2023-05-07T04:37:51;10.80;;;6.65;;
75993;SDS011;64680;53.800;9.988;2023-05-07T04:40:17;10.80;;;6.80;;
75993;SDS011;64680;53.800;9.988;2023-05-07T04:42:42;12.07;;;6.53;;
75993;SDS011;64680;53.800;9.988;2023-05-07T04:45:08;10.35;;;7.07;;
75993;SDS011;64680;53.800;9.988;2023-05-07T04:47:35;10.75;;;6.75;;
75993;SDS011;64680;53.800;9.988;2023-05-07T04:50:01;12.10;;;7.78;;
75993;SDS011;64680;53.800;9.988;2023-05-07T04:52:27;9.70;;;6.43;;
75993;SDS011;64680;53.800;9.988;2023-05-07T04:54:52;10.57;;;6.43;;
75993;SDS011;64680;53.800;9.988;2023-05-07T04:57:18;12.35;;;7.30;;
75993;SDS011;64680;53.800;9.988;2023-05-07T04:59:44;13.25;;;7.68;;
75993;SDS011;64680;53.800;9.988;2023-05-07T05:02:10;12.57;;;7.18;;
75993;SDS011;64680;53.800;9.988;2023-05-07T05:04:35;11.18;;;7.03;;
75993;SDS011;64680;53.800;9.988;2023-05-07T05:07:01;12.02;;;7.63;;
75993;SDS011;64680;53.800;9.988;2023-05-07T05:09:29;11.05;;;6.97;;
75993;SDS011;64680;53.800;9.988;2023-05-07T05:11:55;12.05;;;7.75;;
75993;SDS011;64680;53.800;9.988;2023-05-07T05:14:20;10.48;;;6.88;;
75993;SDS011;64680;53.800;9.988;2023-05-07T05:16:46;10.13;;;6.75;;
75993;SDS011;64680;53.800;9.988;2023-05-07T05:19:11;11.50;;;6.97;;
75993;SDS011;64680;53.800;9.988;2023-05-07T05:21:37;11.05;;;6.95;;
75993;SDS011;64680;53.800;9.988;2023-05-07T05:24:03;11.43;;;7.18;;
75993;SDS011;64680;53.800;9.988;2023-05-07T05:26:28;12.50;;;7.00;;
75993;SDS011;64680;53.800;9.988;2023-05-07T05:28:54;10.07;;;6.95;;
75993;SDS011;64680;53.800;9.988;2023-05-07T05:31:20;12.18;;;7.40;;
75993;SDS011;64680;53.800;9.988;2023-05-07T05:33:46;10.73;;;6.93;;
75993;SDS011;64680;53.800;9.988;2023-05-07T05:36:11;9.35;;;6.00;;
75993;SDS011;64680;53.800;9.988;2023-05-07T05:38:38;10.52;;;6.78;;
75993;SDS011;64680;53.800;9.988;2023-05-07T05:41:04;9.18;;;6.53;;
75993;SDS011;64680;53.800;9.988;2023-05-07T05:43:30;11.05;;;6.50;;
75993;SDS011;64680;53.800;9.988;2023-05-07T05:45:56;10.18;;;6.50;;
75993;SDS011;64680;53.800;9.988;2023-05-07T05:48:22;9.60;;;6.57;;
75993;SDS011;64680;53.800;9.988;2023-05-07T05:50:48;9.43;;;6.25;;
75993;SDS011;64680;53.800;9.988;2023-05-07T05:53:14;9.45;;;6.20;;
75993;SDS011;64680;53.800;9.988;2023-05-07T05:55:40;9.75;;;5.65;;
75993;SDS011;64680;53.800;9.988;2023-05-07T05:58:06;8.55;;;5.60;;
75993;SDS011;64680;53.800;9.988;2023-05-07T06:00:32;8.82;;;6.07;;
75993;SDS011;64680;53.800;9.988;2023-05-07T06:02:58;7.80;;;5.32;;
75993;SDS011;64680;53.800;9.988;2023-05-07T06:05:23;8.00;;;5.78;;
75993;SDS011;64680;53.800;9.988;2023-05-07T06:07:49;9.43;;;6.35;;
75993;SDS011;64680;53.800;9.988;2023-05-07T06:10:15;7.80;;;5.13;;
75993;SDS011;64680;53.800;9.988;2023-05-07T06:12:41;9.40;;;6.10;;
75993;SDS011;64680;53.800;9.988;2023-05-07T06:15:07;10.57;;;6.07;;
75993;SDS011;64680;53.800;9.988;2023-05-07T06:17:32;8.55;;;5.65;;
75993;SDS011;64680;53.800;9.988;2023-05-07T06:19:59;8.82;;;5.63;;
75993;SDS011;64680;53.800;9.988;2023-05-07T06:22:25;8.05;;;5.15;;
75993;SDS011;64680;53.800;9.988;2023-05-07T06:24:51;7.55;;;5.10;;
75993;SDS011;64680;53.800;9.988;2023-05-07T06:27:17;8.75;;;5.55;;
75993;SDS011;64680;53.800;9.988;2023-05-07T06:29:42;7.32;;;5.07;;
75993;SDS011;64680;53.800;9.988;2023-05-07T06:32:11;9.50;;;4.78;;
75993;SDS011;64680;53.800;9.988;2023-05-07T06:34:38;7.80;;;5.20;;
75993;SDS011;64680;53.800;9.988;2023-05-07T06:37:04;7.93;;;5.75;;
75993;SDS011;64680;53.800;9.988;2023-05-07T06:39:31;7.93;;;4.90;;
75993;SDS011;64680;53.800;9.988;2023-05-07T06:41:57;8.90;;;5.72;;
75993;SDS011;64680;53.800;9.988;2023-05-07T06:44:23;5.78;;;4.18;;
75993;SDS011;64680;53.800;9.988;2023-05-07T06:46:49;7.15;;;4.30;;
75993;SDS011;64680;53.800;9.988;2023-05-07T06:49:14;6.40;;;4.60;;
75993;SDS011;64680;53.800;9.988;2023-05-07T06:51:40;7.38;;;5.03;;
75993;SDS011;64680;53.800;9.988;2023-05-07T06:54:06;7.13;;;4.13;;
75993;SDS011;64680;53.800;9.988;2023-05-07T06:56:32;7.05;;;4.93;;
75993;SDS011;64680;53.800;9.988;2023-05-07T06:58:59;6.70;;;5.03;;
75993;SDS011;64680;53.800;9.988;2023-05-07T07:01:25;7.13;;;4.45;;
75993;SDS011;64680;53.800;9.988;2023-05-07T07:03:51;6.75;;;4.63;;
75993;SDS011;64680;53.800;9.988;2023-05-07T07:06:17;6.80;;;4.43;;
75993;SDS011;64680;53.800;9.988;2023-05-07T07:08:43;6.22;;;4.45;;
75993;SDS011;64680;53.800;9.988;2023-05-07T07:11:09;7.55;;;4.78;;
75993;SDS011;64680;53.800;9.988;2023-05-07T07:13:35;6.20;;;4.20;;
75993;SDS011;64680;53.800;9.988;2023-05-07T07:16:01;6.60;;;4.22;;
75993;SDS011;64680;53.800;9.988;2023-05-07T07:18:28;5.93;;;4.38;;
75993;SDS011;64680;53.800;9.988;2023-05-07T07:20:53;6.72;;;4.15;;
75993;SDS011;64680;53.800;9.988;2023-05-07T07:23:19;5.75;;;4.15;;
75993;SDS011;64680;53.800;9.988;2023-05-07T07:25:45;5.20;;;3.72;;
75993;SDS011;64680;53.800;9.988;2023-05-07T07:28:10;6.28;;;4.50;;
75993;SDS011;64680;53.800;9.988;2023-05-07T07:30:36;5.47;;;4.30;;
75993;SDS011;64680;53.800;9.988;2023-05-07T07:33:02;6.72;;;4.35;;
75993;SDS011;64680;53.800;9.988;2023-05-07T07:35:29;7.82;;;4.38;;
75993;SDS011;64680;53.800;9.988;2023-05-07T07:37:55;5.97;;;4.13;;
75993;SDS011;64680;53.800;9.988;2023-05-07T07:40:21;7.13;;;4.13;;
75993;SDS011;64680;53.800;9.988;2023-05-07T07:42:46;6.03;;;3.83;;
75993;SDS011;64680;53.800;9.988;2023-05-07T07:45:12;5.72;;;3.75;;
75993;SDS011;64680;53.800;9.988;2023-05-07T07:47:38;4.68;;;3.67;;
75993;SDS011;64680;53.800;9.988;2023-05-07T07:50:05;6.45;;;4.00;;
75993;SDS011;64680;53.800;9.988;2023-05-07T07:52:32;4.63;;;3.95;;
75993;SDS011;64680;53.800;9.988;2023-05-07T07:54:58;5.10;;;3.65;;
75993;SDS011;64680;53.800;9.988;2023-05-07T07:57:24;4.57;;;3.60;;
75993;SDS011;64680;53.800;9.988;2023-05-07T07:59:50;5.60;;;3.70;;
75993;SDS011;64680;53.800;9.988;2023-05-07T08:02:15;5.35;;;4.00;;
75993;SDS011;64680;53.800;9.988;2023-05-07T08:04:41;5.13;;;3.58;;
75993;SDS011;64680;53.800;9.988;2023-05-07T08:07:08;4.28;;;3.08;;
75993;SDS011;64680;53.800;9.988;2023-05-07T08:09:37;4.53;;;3.55;;
75993;SDS011;64680;53.800;9.988;2023-05-07T08:12:04;5.45;;;3.83;;
75993;SDS011;64680;53.800;9.988;2023-05-07T08:14:30;4.88;;;3.53;;
75993;SDS011;64680;53.800;9.988;2023-05-07T08:16:56;5.43;;;3.88;;
75993;SDS011;64680;53.800;9.988;2023-05-07T08:19:21;5.35;;;3.75;;
75993;SDS011;64680;53.800;9.988;2023-05-07T08:21:47;4.63;;;3.25;;
75993;SDS011;64680;53.800;9.988;2023-05-07T08:24:13;4.63;;;3.70;;
75993;SDS011;64680;53.800;9.988;2023-05-07T08:26:39;5.97;;;3.65;;
75993;SDS011;64680;53.800;9.988;2023-05-07T08:29:05;4.95;;;3.60;;
75993;SDS011;64680;53.800;9.988;2023-05-07T08:31:31;4.78;;;3.80;;
75993;SDS011;64680;53.800;9.988;2023-05-07T08:33:57;6.22;;;4.00;;
75993;SDS011;64680;53.800;9.988;2023-05-07T08:36:23;4.40;;;3.42;;
75993;SDS011;64680;53.800;9.988;2023-05-07T08:38:50;4.25;;;3.47;;
75993;SDS011;64680;53.800;9.988;2023-05-07T08:41:16;5.80;;;3.92;;
75993;SDS011;64680;53.800;9.988;2023-05-07T08:43:41;5.25;;;3.97;;
75993;SDS011;64680;53.800;9.988;2023-05-07T08:46:11;4.88;;;3.88;;
75993;SDS011;64680;53.800;9.988;2023-05-07T08:48:42;4.97;;;3.80;;
75993;SDS011;64680;53.800;9.988;2023-05-07T08:51:08;5.00;;;3.65;;
75993;SDS011;64680;53.800;9.988;2023-05-07T08:53:37;4.43;;;3.40;;
75993;SDS011;64680;53.800;9.988;2023-05-07T08:56:07;5.78;;;4.10;;
75993;SDS011;64680;53.800;9.988;2023-05-07T08:58:33;4.57;;;3.47;;
75993;SDS011;64680;53.800;9.988;2023-05-07T09:01:00;4.65;;;3.28;;
75993;SDS011;64680;53.800;9.988;2023-05-07T09:03:47;4.90;;;3.92;;
75993;SDS011;64680;53.800;9.988;2023-05-07T09:08:40;4.30;;;3.42;;
75993;SDS011;64680;53.800;9.988;2023-05-07T09:11:09;3.85;;;3.08;;
75993;SDS011;64680;53.800;9.988;2023-05-07T09:13:35;4.75;;;3.60;;
75993;SDS011;64680;53.800;9.988;2023-05-07T09:16:11;4.55;;;3.65;;
75993;SDS011;64680;53.800;9.988;2023-05-07T09:18:41;4.03;;;3.03;;
75993;SDS011;64680;53.800;9.988;2023-05-07T09:21:11;5.38;;;3.53;;
75993;SDS011;64680;53.800;9.988;2023-05-07T09:23:39;5.15;;;3.47;;
75993;SDS011;64680;53.800;9.988;2023-05-07T09:26:06;3.83;;;3.42;;
75993;SDS011;64680;53.800;9.988;2023-05-07T09:28:37;5.78;;;3.75;;
75993;SDS011;64680;53.800;9.988;2023-05-07T09:31:04;5.43;;;3.53;;
75993;SDS011;64680;53.800;9.988;2023-05-07T09:33:30;5.22;;;3.85;;
75993;SDS011;64680;53.800;9.988;2023-05-07T09:35:55;4.63;;;3.75;;
75993;SDS011;64680;53.800;9.988;2023-05-07T09:38:21;4.20;;;3.40;;
75993;SDS011;64680;53.800;9.988;2023-05-07T09:40:47;4.47;;;3.50;;
75993;SDS011;64680;53.800;9.988;2023-05-07T09:43:26;5.95;;;3.70;;
75993;SDS011;64680;53.800;9.988;2023-05-07T09:45:56;3.78;;;3.22;;
75993;SDS011;64680;53.800;9.988;2023-05-07T09:48:23;4.30;;;2.78;;
75993;SDS011;64680;53.800;9.988;2023-05-07T09:50:51;4.68;;;2.95;;
75993;SDS011;64680;53.800;9.988;2023-05-07T09:53:19;4.45;;;3.58;;
75993;SDS011;64680;53.800;9.988;2023-05-07T09:55:46;4.93;;;3.50;;
75993;SDS011;64680;53.800;9.988;2023-05-07T09:58:12;5.65;;;3.10;;
75993;SDS011;64680;53.800;9.988;2023-05-07T10:00:39;4.88;;;3.20;;
75993;SDS011;64680;53.800;9.988;2023-05-07T10:03:06;4.70;;;3.08;;
75993;SDS011;64680;53.800;9.988;2023-05-07T10:08:00;3.40;;;2.72;;
75993;SDS011;64680;53.800;9.988;2023-05-07T10:10:26;6.10;;;3.03;;
75993;SDS011;64680;53.800;9.988;2023-05-07T10:15:19;4.10;;;3.10;;
75993;SDS011;64680;53.800;9.988;2023-05-07T10:17:46;3.10;;;2.65;;
75993;SDS011;64680;53.800;9.988;2023-05-07T10:20:13;3.58;;;2.65;;
75993;SDS011;64680;53.800;9.988;2023-05-07T10:22:40;4.40;;;2.58;;
75993;SDS011;64680;53.800;9.988;2023-05-07T10:25:14;3.63;;;2.70;;
75993;SDS011;64680;53.800;9.988;2023-05-07T10:27:48;3.90;;;2.75;;
75993;SDS011;64680;53.800;9.988;2023-05-07T10:30:31;3.17;;;2.38;;
75993;SDS011;64680;53.800;9.988;2023-05-07T10:33:15;3.70;;;2.47;;
75993;SDS011;64680;53.800;9.988;2023-05-07T10:35:45;3.22;;;2.92;;
75993;SDS011;64680;53.800;9.988;2023-05-07T10:38:12;4.78;;;2.72;;
75993;SDS011;64680;53.800;9.988;2023-05-07T10:40:38;4.30;;;2.72;;
75993;SDS011;64680;53.800;9.988;2023-05-07T10:43:04;3.22;;;2.63;;
75993;SDS011;64680;53.800;9.988;2023-05-07T10:45:30;2.55;;;2.35;;
75993;SDS011;64680;53.800;9.988;2023-05-07T10:50:39;2.75;;;2.10;;
75993;SDS011;64680;53.800;9.988;2023-05-07T10:55:51;2.63;;;2.25;;
75993;SDS011;64680;53.800;9.988;2023-05-07T10:58:36;2.42;;;2.22;;
75993;SDS011;64680;53.800;9.988;2023-05-07T11:01:02;2.40;;;2.03;;
75993;SDS011;64680;53.800;9.988;2023-05-07T11:03:28;4.22;;;2.47;;
75993;SDS011;64680;53.800;9.988;2023-05-07T11:06:08;2.75;;;1.92;;
75993;SDS011;64680;53.800;9.988;2023-05-07T11:11:48;2.40;;;1.95;;
75993;SDS011;64680;53.800;9.988;2023-05-07T11:17:06;2.85;;;1.90;;
75993;SDS011;64680;53.800;9.988;2023-05-07T11:19:47;3.45;;;2.38;;
75993;SDS011;64680;53.800;9.988;2023-05-07T11:24:58;2.20;;;2.00;;
75993;SDS011;64680;53.800;9.988;2023-05-07T11:27:25;2.55;;;2.00;;
75993;SDS011;64680;53.800;9.988;2023-05-07T11:29:51;2.42;;;2.10;;
75993;SDS011;64680;53.800;9.988;2023-05-07T11:32:23;2.78;;;2.15;;
75993;SDS011;64680;53.800;9.988;2023-05-07T11:34:56;3.15;;;1.75;;
75993;SDS011;64680;53.800;9.988;2023-05-07T11:37:23;4.70;;;2.00;;
75993;SDS011;64680;53.800;9.988;2023-05-07T11:39:50;3.20;;;2.17;;
75993;SDS011;64680;53.800;9.988;2023-05-07T11:44:53;2.00;;;1.70;;
75993;SDS011;64680;53.800;9.988;2023-05-07T11:47:22;2.58;;;1.90;;
75993;SDS011;64680;53.800;9.988;2023-05-07T11:49:49;2.60;;;2.00;;
75993;SDS011;64680;53.800;9.988;2023-05-07T11:54:48;3.65;;;1.88;;
75993;SDS011;64680;53.800;9.988;2023-05-07T11:57:14;3.00;;;1.90;;
75993;SDS011;64680;53.800;9.988;2023-05-07T11:59:40;2.30;;;1.75;;
75993;SDS011;64680;53.800;9.988;2023-05-07T12:02:06;2.58;;;1.73;;
75993;SDS011;64680;53.800;9.988;2023-05-07T12:04:33;1.60;;;1.50;;
75993;SDS011;64680;53.800;9.988;2023-05-07T12:06:58;1.55;;;1.45;;
75993;SDS011;64680;53.800;9.988;2023-05-07T12:09:24;2.00;;;1.80;;
75993;SDS011;64680;53.800;9.988;2023-05-07T12:11:51;2.55;;;1.50;;
75993;SDS011;64680;53.800;9.988;2023-05-07T12:14:17;1.70;;;1.58;;
75993;SDS011;64680;53.800;9.988;2023-05-07T12:16:43;2.25;;;1.27;;
75993;SDS011;64680;53.800;9.988;2023-05-07T12:19:10;2.05;;;1.48;;
75993;SDS011;64680;53.800;9.988;2023-05-07T12:21:37;1.55;;;1.30;;
75993;SDS011;64680;53.800;9.988;2023-05-07T12:24:04;1.63;;;1.38;;
75993;SDS011;64680;53.800;9.988;2023-05-07T12:26:30;1.83;;;1.65;;
75993;SDS011;64680;53.800;9.988;2023-05-07T12:28:59;1.90;;;1.63;;
75993;SDS011;64680;53.800;9.988;2023-05-07T12:31:25;2.08;;;1.40;;
75993;SDS011;64680;53.800;9.988;2023-05-07T12:33:51;2.05;;;1.20;;
75993;SDS011;64680;53.800;9.988;2023-05-07T12:36:16;2.15;;;1.30;;
75993;SDS011;64680;53.800;9.988;2023-05-07T12:38:42;1.77;;;1.20;;
75993;SDS011;64680;53.800;9.988;2023-05-07T12:41:09;1.50;;;1.17;;
75993;SDS011;64680;53.800;9.988;2023-05-07T12:43:35;1.42;;;1.30;;
75993;SDS011;64680;53.800;9.988;2023-05-07T12:46:03;1.70;;;1.30;;
75993;SDS011;64680;53.800;9.988;2023-05-07T12:48:30;1.30;;;1.20;;
75993;SDS011;64680;53.800;9.988;2023-05-07T12:50:57;1.77;;;1.52;;
75993;SDS011;64680;53.800;9.988;2023-05-07T12:53:25;1.13;;;1.02;;
75993;SDS011;64680;53.800;9.988;2023-05-07T12:55:53;2.10;;;1.38;;
75993;SDS011;64680;53.800;9.988;2023-05-07T12:58:20;1.30;;;1.15;;
75993;SDS011;64680;53.800;9.988;2023-05-07T13:00:52;1.90;;;1.30;;
75993;SDS011;64680;53.800;9.988;2023-05-07T13:05:48;2.78;;;1.30;;
75993;SDS011;64680;53.800;9.988;2023-05-07T13:08:22;2.25;;;1.25;;
75993;SDS011;64680;53.800;9.988;2023-05-07T13:10:49;1.50;;;1.33;;
75993;SDS011;64680;53.800;9.988;2023-05-07T13:13:14;1.35;;;1.05;;
75993;SDS011;64680;53.800;9.988;2023-05-07T13:15:40;2.03;;;1.38;;
75993;SDS011;64680;53.800;9.988;2023-05-07T13:18:06;1.58;;;1.30;;
75993;SDS011;64680;53.800;9.988;2023-05-07T13:20:31;1.77;;;1.30;;
75993;SDS011;64680;53.800;9.988;2023-05-07T13:22:57;1.98;;;1.30;;
75993;SDS011;64680;53.800;9.988;2023-05-07T13:25:23;1.10;;;1.00;;
75993;SDS011;64680;53.800;9.988;2023-05-07T13:27:48;1.20;;;1.10;;
75993;SDS011;64680;53.800;9.988;2023-05-07T13:30:14;1.42;;;1.15;;
75993;SDS011;64680;53.800;9.988;2023-05-07T13:32:40;2.88;;;1.20;;
75993;SDS011;64680;53.800;9.988;2023-05-07T13:35:06;2.13;;;1.48;;
75993;SDS011;64680;53.800;9.988;2023-05-07T13:37:32;1.92;;;1.20;;
75993;SDS011;64680;53.800;9.988;2023-05-07T13:39:58;1.25;;;1.15;;
75993;SDS011;64680;53.800;9.988;2023-05-07T13:42:23;1.85;;;1.05;;
75993;SDS011;64680;53.800;9.988;2023-05-07T13:44:49;1.52;;;1.00;;
75993;SDS011;64680;53.800;9.988;2023-05-07T13:47:15;1.63;;;1.23;;
75993;SDS011;64680;53.800;9.988;2023-05-07T13:49:40;1.58;;;1.00;;
75993;SDS011;64680;53.800;9.988;2023-05-07T13:52:06;1.02;;;0.93;;
75993;SDS011;64680;53.800;9.988;2023-05-07T13:54:31;1.50;;;1.10;;
75993;SDS011;64680;53.800;9.988;2023-05-07T13:56:57;1.50;;;0.95;;
75993;SDS011;64680;53.800;9.988;2023-05-07T13:59:22;2.38;;;1.02;;
75993;SDS011;64680;53.800;9.988;2023-05-07T14:01:48;1.40;;;1.20;;
75993;SDS011;64680;53.800;9.988;2023-05-07T14:04:14;1.00;;;0.80;;
75993;SDS011;64680;53.800;9.988;2023-05-07T14:06:40;2.05;;;1.00;;
75993;SDS011;64680;53.800;9.988;2023-05-07T14:09:05;3.35;;;0.88;;
75993;SDS011;64680;53.800;9.988;2023-05-07T14:11:31;3.40;;;1.13;;
75993;SDS011;64680;53.800;9.988;2023-05-07T14:13:56;2.08;;;1.13;;
75993;SDS011;64680;53.800;9.988;2023-05-07T14:16:23;2.33;;;1.13;;
75993;SDS011;64680;53.800;9.988;2023-05-07T14:18:48;1.52;;;1.00;;
75993;SDS011;64680;53.800;9.988;2023-05-07T14:21:14;1.60;;;1.17;;
75993;SDS011;64680;53.800;9.988;2023-05-07T14:23:39;1.23;;;1.13;;
75993;SDS011;64680;53.800;9.988;2023-05-07T14:26:05;2.35;;;0.90;;
75993;SDS011;64680;53.800;9.988;2023-05-07T14:28:31;1.30;;;1.08;;
75993;SDS011;64680;53.800;9.988;2023-05-07T14:30:56;1.50;;;1.15;;
75993;SDS011;64680;53.800;9.988;2023-05-07T14:33:22;1.98;;;1.20;;
75993;SDS011;64680;53.800;9.988;2023-05-07T14:35:47;1.42;;;1.02;;
75993;SDS011;64680;53.800;9.988;2023-05-07T14:40:40;0.98;;;0.90;;
75993;SDS011;64680;53.800;9.988;2023-05-07T14:43:06;2.28;;;1.90;;
75993;SDS011;64680;53.800;9.988;2023-05-07T14:45:32;2.17;;;1.17;;
75993;SDS011;64680;53.800;9.988;2023-05-07T14:47:57;0.90;;;0.73;;
75993;SDS011;64680;53.800;9.988;2023-05-07T14:50:23;1.70;;;1.00;;
75993;SDS011;64680;53.800;9.988;2023-05-07T14:52:48;1.65;;;0.82;;
75993;SDS011;64680;53.800;9.988;2023-05-07T14:55:14;1.17;;;0.95;;
75993;SDS011;64680;53.800;9.988;2023-05-07T14:57:40;1.65;;;1.00;;
75993;SDS011;64680;53.800;9.988;2023-05-07T15:00:06;1.80;;;1.00;;
75993;SDS011;64680;53.800;9.988;2023-05-07T15:02:32;1.98;;;1.13;;
75993;SDS011;64680;53.800;9.988;2023-05-07T15:04:58;2.00;;;1.40;;
75993;SDS011;64680;53.800;9.988;2023-05-07T15:07:24;1.58;;;1.25;;
75993;SDS011;64680;53.800;9.988;2023-05-07T15:09:50;2.00;;;1.13;;
75993;SDS011;64680;53.800;9.988;2023-05-07T15:12:16;2.55;;;1.67;;
75993;SDS011;64680;53.800;9.988;2023-05-07T15:14:41;1.30;;;1.13;;
75993;SDS011;64680;53.800;9.988;2023-05-07T15:17:07;1.38;;;1.05;;